createdAt,value
2022-12-12T00:00:52.532Z,239.81
2022-12-12T00:01:52.541Z,240.3
2022-12-12T00:02:52.653Z,240.83
2022-12-12T00:03:52.676Z,239.56
2022-12-12T00:04:52.569Z,240.45
2022-12-12T00:05:52.543Z,240.93
2022-12-12T00:06:52.547Z,240.58
2022-12-12T00:07:52.582Z,241.23
2022-12-12T00:08:52.585Z,240.09
2022-12-12T00:09:52.601Z,240.22
2022-12-12T00:10:52.549Z,240.21
2022-12-12T00:11:52.555Z,241.42
2022-12-12T00:12:52.556Z,240.65
2022-12-12T00:13:52.584Z,240.69
2022-12-12T00:14:52.556Z,241.26
2022-12-12T00:15:52.609Z,240.09
2022-12-12T00:16:52.610Z,239.98
2022-12-12T00:17:52.578Z,239.97
2022-12-12T00:18:52.584Z,237.95
2022-12-12T00:19:52.568Z,236.81
2022-12-12T00:20:52.593Z,236.95
2022-12-12T00:21:52.571Z,235.51
2022-12-12T00:22:52.569Z,235.37
2022-12-12T00:23:52.596Z,235.12
2022-12-12T00:24:52.569Z,236.26
2022-12-12T00:25:52.580Z,236.35
2022-12-12T00:26:52.578Z,237.2
2022-12-12T00:27:55.592Z,237.76
2022-12-12T00:28:52.597Z,237.17
2022-12-12T00:29:52.581Z,237.5
2022-12-12T00:30:52.626Z,237.9
2022-12-12T00:31:52.581Z,237.05
2022-12-12T00:32:52.590Z,238.17
2022-12-12T00:33:52.631Z,238.87
2022-12-12T00:34:52.587Z,238.4
2022-12-12T00:35:52.598Z,237.44
2022-12-12T00:36:52.624Z,237.5
2022-12-12T00:37:52.596Z,237.17
2022-12-12T00:38:53.858Z,237.42
2022-12-12T00:39:52.599Z,237.03
2022-12-12T00:40:52.598Z,236.47
2022-12-12T00:41:52.599Z,236.39
2022-12-12T00:42:52.598Z,236.53
2022-12-12T00:43:52.613Z,236.32
2022-12-12T00:44:52.600Z,236.14
2022-12-12T00:45:52.610Z,235.66
2022-12-12T00:46:52.655Z,234.46
2022-12-12T00:47:52.614Z,233.4
2022-12-12T00:48:52.618Z,231.73
2022-12-12T00:49:55.700Z,230.65
2022-12-12T00:50:52.610Z,228.12
2022-12-12T00:51:52.619Z,227.6
2022-12-12T00:52:52.647Z,227.88
2022-12-12T00:53:52.620Z,228.3
2022-12-12T00:54:52.625Z,227.63
2022-12-12T00:55:52.638Z,228.56
2022-12-12T00:56:52.626Z,229.31
2022-12-12T00:57:52.622Z,228.77
2022-12-12T00:58:52.624Z,229.25
2022-12-12T00:59:52.628Z,230.59
2022-12-12T01:00:55.663Z,230.6
2022-12-12T01:01:52.654Z,230.61
2022-12-12T01:02:52.690Z,230.17
2022-12-12T01:03:52.631Z,229.89
2022-12-12T01:04:52.639Z,229.28
2022-12-12T01:05:52.641Z,228.94
2022-12-12T01:06:52.643Z,230
2022-12-12T01:07:52.669Z,229.55
2022-12-12T01:08:52.676Z,230.73
2022-12-12T01:09:52.661Z,230.89
2022-12-12T01:10:52.641Z,231.19
2022-12-12T01:11:52.646Z,231.43
2022-12-12T01:12:52.649Z,231.83
2022-12-12T01:13:52.652Z,231.85
2022-12-12T01:14:52.656Z,232.34
2022-12-12T01:15:52.704Z,231.91
2022-12-12T01:16:52.660Z,231.49
2022-12-12T01:17:52.660Z,230.98
2022-12-12T01:18:52.654Z,230.33
2022-12-12T01:19:52.665Z,229.32
2022-12-12T01:20:52.660Z,230.79
2022-12-12T01:21:52.661Z,230.56
2022-12-12T01:22:52.663Z,231.5
2022-12-12T01:23:52.671Z,231.89
2022-12-12T01:24:52.698Z,231.74
2022-12-12T01:25:52.672Z,232.16
2022-12-12T01:26:52.665Z,231.25
2022-12-12T01:27:52.675Z,232.71
2022-12-12T01:28:52.669Z,232.93
2022-12-12T01:29:52.681Z,233.27
2022-12-12T01:30:52.681Z,232.8
2022-12-12T01:31:52.682Z,231.8
2022-12-12T01:32:52.678Z,230.95
2022-12-12T01:33:52.687Z,231.17
2022-12-12T01:34:52.679Z,230.9
2022-12-12T01:35:52.688Z,231.15
2022-12-12T01:36:52.683Z,231.69
2022-12-12T01:37:52.689Z,232.52
2022-12-12T01:38:52.693Z,233.34
2022-12-12T01:39:52.693Z,233.11
2022-12-12T01:40:52.714Z,234.25
2022-12-12T01:41:52.690Z,234.57
2022-12-12T01:42:52.696Z,235.01
2022-12-12T01:43:52.708Z,235.69
2022-12-12T01:44:52.693Z,235.69
2022-12-12T01:45:52.702Z,236.1
2022-12-12T01:46:52.747Z,236.11
2022-12-12T01:47:52.707Z,236.34
2022-12-12T01:48:52.707Z,237.03
2022-12-12T01:49:52.704Z,236.39
2022-12-12T01:50:52.710Z,236.15
2022-12-12T01:51:52.712Z,235.71
2022-12-12T01:52:52.721Z,236.36
2022-12-12T01:53:52.710Z,235.44
2022-12-12T01:54:52.716Z,235.72
2022-12-12T01:55:52.718Z,235.73
2022-12-12T01:56:52.810Z,235.93
2022-12-12T01:57:52.714Z,236.46
2022-12-12T01:58:52.719Z,234.52
2022-12-12T01:59:52.726Z,233.35
2022-12-12T02:00:52.782Z,233.87
2022-12-12T02:01:52.780Z,233
2022-12-12T02:02:52.731Z,232.96
2022-12-12T02:03:52.731Z,232.96
2022-12-12T02:04:52.732Z,233.68
2022-12-12T02:05:52.735Z,233.05
2022-12-12T02:06:52.737Z,232.57
2022-12-12T02:07:52.777Z,232.54
2022-12-12T02:08:52.740Z,233.72
2022-12-12T02:09:52.757Z,233.55
2022-12-12T02:10:52.744Z,233.02
2022-12-12T02:11:52.747Z,232.59
2022-12-12T02:12:52.771Z,233.97
2022-12-12T02:13:52.748Z,234.03
2022-12-12T02:14:52.743Z,233.64
2022-12-12T02:15:52.762Z,234.06
2022-12-12T02:16:52.744Z,234.59
2022-12-12T02:17:52.752Z,234.53
2022-12-12T02:18:52.749Z,234.32
2022-12-12T02:19:52.748Z,235.48
2022-12-12T02:20:52.757Z,235.03
2022-12-12T02:21:52.753Z,234.81
2022-12-12T02:22:52.761Z,235.48
2022-12-12T02:23:52.764Z,235.47
2022-12-12T02:24:52.763Z,234.5
2022-12-12T02:25:52.760Z,234.51
2022-12-12T02:26:52.767Z,233.82
2022-12-12T02:27:52.769Z,234.3
2022-12-12T02:28:52.814Z,234.08
2022-12-12T02:29:52.771Z,233.71
2022-12-12T02:30:52.774Z,234.55
2022-12-12T02:31:52.853Z,234.82
2022-12-12T02:32:52.772Z,235.25
2022-12-12T02:33:52.771Z,235.24
2022-12-12T02:34:52.792Z,236.89
2022-12-12T02:35:52.785Z,235.03
2022-12-12T02:36:52.780Z,235.5
2022-12-12T02:37:52.775Z,234.75
2022-12-12T02:38:52.784Z,234.82
2022-12-12T02:39:52.778Z,235.55
2022-12-12T02:40:52.787Z,235.01
2022-12-12T02:41:52.782Z,234.79
2022-12-12T02:42:52.793Z,234.52
2022-12-12T02:43:52.797Z,235.23
2022-12-12T02:44:52.821Z,234.54
2022-12-12T02:45:52.795Z,233.81
2022-12-12T02:46:52.841Z,233.15
2022-12-12T02:47:52.795Z,232.47
2022-12-12T02:48:52.804Z,232.73
2022-12-12T02:49:52.801Z,231.87
2022-12-12T02:50:52.887Z,231.45
2022-12-12T02:51:52.798Z,231.13
2022-12-12T02:52:52.808Z,230.89
2022-12-12T02:53:52.807Z,230.89
2022-12-12T02:54:55.885Z,230.66
2022-12-12T02:55:52.807Z,230.13
2022-12-12T02:56:52.806Z,230.54
2022-12-12T02:57:52.808Z,230.04
2022-12-12T02:58:52.810Z,229.36
2022-12-12T02:59:52.816Z,228.42
2022-12-12T03:00:52.957Z,228.87
2022-12-12T03:01:52.853Z,229.1
2022-12-12T03:02:52.821Z,229.15
2022-12-12T03:03:52.824Z,229.13
2022-12-12T03:04:52.826Z,229.11
2022-12-12T03:05:55.826Z,228.69
2022-12-12T03:06:52.829Z,228.91
2022-12-12T03:07:52.933Z,229.17
2022-12-12T03:08:52.828Z,229.22
2022-12-12T03:09:52.855Z,228.53
2022-12-12T03:10:52.835Z,229.25
2022-12-12T03:11:52.831Z,229.3
2022-12-12T03:12:52.837Z,229.89
2022-12-12T03:13:52.832Z,229.96
2022-12-12T03:14:52.836Z,228.28
2022-12-12T03:15:52.875Z,228.73
2022-12-12T03:16:55.935Z,228.16
2022-12-12T03:17:52.839Z,227.87
2022-12-12T03:18:52.849Z,227.66
2022-12-12T03:19:52.853Z,227.64
2022-12-12T03:20:52.849Z,228.1
2022-12-12T03:21:52.865Z,227.56
2022-12-12T03:22:52.852Z,228.27
2022-12-12T03:23:52.847Z,227.81
2022-12-12T03:24:52.859Z,226.2
2022-12-12T03:25:52.856Z,226.25
2022-12-12T03:26:52.851Z,225.54
2022-12-12T03:27:55.914Z,224.56
2022-12-12T03:28:52.860Z,224.29
2022-12-12T03:29:52.858Z,223.7
2022-12-12T03:30:52.857Z,223.59
2022-12-12T03:31:52.896Z,223.88
2022-12-12T03:32:52.897Z,223.94
2022-12-12T03:33:52.865Z,223.68
2022-12-12T03:34:52.872Z,223.21
2022-12-12T03:35:52.872Z,221.55
2022-12-12T03:36:52.870Z,220.95
2022-12-12T03:37:52.875Z,220.88
2022-12-12T03:38:55.905Z,219.92
2022-12-12T03:39:52.879Z,220.63
2022-12-12T03:40:52.879Z,221.31
2022-12-12T03:41:52.885Z,220.94
2022-12-12T03:42:52.883Z,221.23
2022-12-12T03:43:52.879Z,221.89
2022-12-12T03:44:52.893Z,221.82
2022-12-12T03:45:52.932Z,222.28
2022-12-12T03:46:52.885Z,222.26
2022-12-12T03:47:52.898Z,222.99
2022-12-12T03:48:52.914Z,222.5
2022-12-12T03:49:52.890Z,222.99
2022-12-12T03:50:52.897Z,223.48
2022-12-12T03:51:52.902Z,222.96
2022-12-12T03:52:52.902Z,221.77
2022-12-12T03:53:53.912Z,221.22
2022-12-12T03:54:52.899Z,219.99
2022-12-12T03:55:52.902Z,219.81
2022-12-12T03:56:52.900Z,219.56
2022-12-12T03:57:52.903Z,219.59
2022-12-12T03:58:52.910Z,218.64
2022-12-12T03:59:52.917Z,219.41
2022-12-12T04:00:52.962Z,217.92
2022-12-12T04:01:52.939Z,217.43
2022-12-12T04:02:52.913Z,217.71
2022-12-12T04:03:52.918Z,217.18
2022-12-12T04:04:52.938Z,217.07
2022-12-12T04:06:52.920Z,217.07
2022-12-12T04:07:52.988Z,216.77
2022-12-12T04:08:52.917Z,216.31
2022-12-12T04:09:52.935Z,216.3
2022-12-12T04:10:52.919Z,216.33
2022-12-12T04:11:52.924Z,217.04
2022-12-12T04:12:52.931Z,216.93
2022-12-12T04:13:52.930Z,217.18
2022-12-12T04:14:52.934Z,217.41
2022-12-12T04:15:52.935Z,216.89
2022-12-12T04:16:52.950Z,217.13
2022-12-12T04:17:52.932Z,216.45
2022-12-12T04:18:52.942Z,215.72
2022-12-12T04:19:53.040Z,216.39
2022-12-12T04:20:52.971Z,215.99
2022-12-12T04:21:52.943Z,216
2022-12-12T04:22:52.939Z,216.17
2022-12-12T04:23:52.940Z,216.38
2022-12-12T04:24:52.961Z,217
2022-12-12T04:25:52.944Z,215.99
2022-12-12T04:26:52.942Z,215.75
2022-12-12T04:27:52.948Z,215.28
2022-12-12T04:28:52.947Z,215.37
2022-12-12T04:29:52.961Z,213.9
2022-12-12T04:30:52.956Z,214.13
2022-12-12T04:31:53.063Z,213.89
2022-12-12T04:32:52.960Z,212.94
2022-12-12T04:33:52.959Z,212.42
2022-12-12T04:34:52.964Z,212.69
2022-12-12T04:35:52.965Z,211.8
2022-12-12T04:36:52.985Z,212.77
2022-12-12T04:37:52.966Z,213.02
2022-12-12T04:38:52.971Z,212.07
2022-12-12T04:39:52.971Z,211.61
2022-12-12T04:40:52.966Z,211.19
2022-12-12T04:41:52.974Z,210.42
2022-12-12T04:42:52.970Z,210.33
2022-12-12T04:43:52.977Z,210.27
2022-12-12T04:44:52.974Z,209.3
2022-12-12T04:45:52.999Z,208.14
2022-12-12T04:46:52.978Z,208.66
2022-12-12T04:47:52.984Z,208.3
2022-12-12T04:48:53.821Z,207.34
2022-12-12T04:49:53.009Z,206.91
2022-12-12T04:50:52.995Z,204.79
2022-12-12T04:51:52.990Z,204.77
2022-12-12T04:52:53.018Z,203.33
2022-12-12T04:53:52.994Z,203.34
2022-12-12T04:54:53.019Z,204.1
2022-12-12T04:55:52.995Z,203.62
2022-12-12T04:56:52.995Z,202.71
2022-12-12T04:57:53.002Z,202.52
2022-12-12T04:58:52.993Z,202.19
2022-12-12T04:59:53.017Z,201.29
2022-12-12T05:00:53.046Z,202.43
2022-12-12T05:01:53.639Z,202.71
2022-12-12T05:02:53.001Z,201.74
2022-12-12T05:03:53.006Z,202.17
2022-12-12T05:04:53.038Z,202.47
2022-12-12T05:05:53.008Z,202.64
2022-12-12T05:06:53.012Z,204.12
2022-12-12T05:07:53.055Z,203.13
2022-12-12T05:08:53.042Z,204.15
2022-12-12T05:09:53.044Z,203.85
2022-12-12T05:10:53.014Z,203.42
2022-12-12T05:11:53.033Z,203.48
2022-12-12T05:12:53.022Z,203.47
2022-12-12T05:13:53.027Z,203.27
2022-12-12T05:14:53.048Z,202.61
2022-12-12T05:15:53.020Z,202.58
2022-12-12T05:16:53.102Z,201.16
2022-12-12T05:17:53.029Z,199.96
2022-12-12T05:18:53.029Z,200.46
2022-12-12T05:19:53.057Z,199.25
2022-12-12T05:20:53.034Z,199.03
2022-12-12T05:21:55.853Z,197.88
2022-12-12T05:22:53.031Z,197.38
2022-12-12T05:23:53.031Z,196.68
2022-12-12T05:24:53.091Z,196.9
2022-12-12T05:25:53.038Z,197.24
2022-12-12T05:26:53.038Z,196.79
2022-12-12T05:27:53.041Z,196.97
2022-12-12T05:28:53.043Z,195.79
2022-12-12T05:29:53.065Z,195.79
2022-12-12T05:30:53.120Z,195.16
2022-12-12T05:31:53.045Z,194.67
2022-12-12T05:32:56.140Z,194.68
2022-12-12T05:33:53.049Z,194.18
2022-12-12T05:34:53.076Z,193.74
2022-12-12T05:35:53.057Z,193.82
2022-12-12T05:36:53.054Z,192.79
2022-12-12T05:37:53.071Z,191.19
2022-12-12T05:38:53.064Z,190.74
2022-12-12T05:39:53.082Z,189.53
2022-12-12T05:40:53.086Z,188.6
2022-12-12T05:41:53.060Z,187.43
2022-12-12T05:42:53.068Z,187.25
2022-12-12T05:43:56.174Z,186.99
2022-12-12T05:44:53.095Z,185.63
2022-12-12T05:45:53.074Z,185.42
2022-12-12T05:46:53.070Z,184.39
2022-12-12T05:47:53.077Z,184.16
2022-12-12T05:48:53.078Z,183.69
2022-12-12T05:49:53.093Z,181.08
2022-12-12T05:50:53.090Z,179.91
2022-12-12T05:51:53.078Z,179.77
2022-12-12T05:52:53.085Z,177.06
2022-12-12T05:53:53.083Z,176.17
2022-12-12T05:54:55.035Z,175.73
2022-12-12T05:55:53.091Z,175.16
2022-12-12T05:56:53.122Z,173.63
2022-12-12T05:57:53.086Z,173.04
2022-12-12T05:58:53.085Z,171.24
2022-12-12T05:59:53.094Z,171.24
2022-12-12T06:00:53.104Z,171.01
2022-12-12T06:01:53.096Z,170.09
2022-12-12T06:02:53.133Z,169.38
2022-12-12T06:03:53.113Z,168.9
2022-12-12T06:04:53.098Z,168.37
2022-12-12T06:05:55.892Z,167.21
2022-12-12T06:06:53.108Z,166.94
2022-12-12T06:07:53.190Z,166.59
2022-12-12T06:08:53.108Z,165.82
2022-12-12T06:09:53.108Z,164.64
2022-12-12T06:10:53.112Z,163.93
2022-12-12T06:11:53.106Z,163
2022-12-12T06:12:53.137Z,162.31
2022-12-12T06:13:53.116Z,161.34
2022-12-12T06:14:53.116Z,160.39
2022-12-12T06:15:53.158Z,159.16
2022-12-12T06:16:53.124Z,158.45
2022-12-12T06:17:53.172Z,156.82
2022-12-12T06:18:53.116Z,157.06
2022-12-12T06:19:53.118Z,155.86
2022-12-12T06:20:53.121Z,155.86
2022-12-12T06:21:53.176Z,155.4
2022-12-12T06:22:53.868Z,154.91
2022-12-12T06:23:53.124Z,155.16
2022-12-12T06:24:53.128Z,155.22
2022-12-12T06:25:53.131Z,154.77
2022-12-12T06:26:53.129Z,155.29
2022-12-12T06:27:53.135Z,153.82
2022-12-12T06:28:53.170Z,151.48
2022-12-12T06:29:53.135Z,149.07
2022-12-12T06:30:53.183Z,145.93
2022-12-12T06:31:53.139Z,142.31
2022-12-12T06:32:53.137Z,139.69
2022-12-12T06:33:53.143Z,136.19
2022-12-12T06:34:53.142Z,135.09
2022-12-12T06:35:53.152Z,132.68
2022-12-12T06:36:53.170Z,130.98
2022-12-12T06:37:53.157Z,129.3
2022-12-12T06:38:53.153Z,127.61
2022-12-12T06:39:53.157Z,127.13
2022-12-12T06:40:53.159Z,126.35
2022-12-12T06:41:53.159Z,125.95
2022-12-12T06:42:53.159Z,125.23
2022-12-12T06:43:53.157Z,125.48
2022-12-12T06:44:53.194Z,125.41
2022-12-12T06:45:53.266Z,124.54
2022-12-12T06:46:53.168Z,123.11
2022-12-12T06:47:53.171Z,122.57
2022-12-12T06:48:53.163Z,123.65
2022-12-12T06:49:53.173Z,124.16
2022-12-12T06:50:53.170Z,124.4
2022-12-12T06:51:53.184Z,124.73
2022-12-12T06:52:53.174Z,126.18
2022-12-12T06:53:53.171Z,127.13
2022-12-12T06:54:53.218Z,127.91
2022-12-12T06:55:53.177Z,129.32
2022-12-12T06:56:53.183Z,129.16
2022-12-12T06:57:53.174Z,129.65
2022-12-12T06:58:53.192Z,128.94
2022-12-12T06:59:53.225Z,129.17
2022-12-12T07:00:53.320Z,131.17
2022-12-12T07:01:53.227Z,129.63
2022-12-12T07:02:53.233Z,129.86
2022-12-12T07:03:53.196Z,129.42
2022-12-12T07:04:53.218Z,129.71
2022-12-12T07:05:53.195Z,128.64
2022-12-12T07:06:53.194Z,128.93
2022-12-12T07:07:53.231Z,129.43
2022-12-12T07:08:53.196Z,129.49
2022-12-12T07:09:53.203Z,129.21
2022-12-12T07:10:53.213Z,129.2
2022-12-12T07:11:53.202Z,129.03
2022-12-12T07:12:57.264Z,128.96
2022-12-12T07:13:53.207Z,128.47
2022-12-12T07:14:53.203Z,128.49
2022-12-12T07:15:53.236Z,128.54
2022-12-12T07:16:53.242Z,128.33
2022-12-12T07:17:53.212Z,129.27
2022-12-12T07:18:53.227Z,129.78
2022-12-12T07:19:53.218Z,131.56
2022-12-12T07:20:53.212Z,130.57
2022-12-12T07:21:53.227Z,131.53
2022-12-12T07:22:53.223Z,131.99
2022-12-12T07:23:53.223Z,132.48
2022-12-12T07:24:53.228Z,132.96
2022-12-12T07:25:53.225Z,132.2
2022-12-12T07:26:53.221Z,132.29
2022-12-12T07:27:53.223Z,132.03
2022-12-12T07:28:53.226Z,131.75
2022-12-12T07:29:53.227Z,131.31
2022-12-12T07:30:53.280Z,131.64
2022-12-12T07:31:53.232Z,131.1
2022-12-12T07:32:53.264Z,130.82
2022-12-12T07:33:53.239Z,130.19
2022-12-12T07:34:53.239Z,130.66
2022-12-12T07:35:53.234Z,131.18
2022-12-12T07:36:56.517Z,130.94
2022-12-12T07:37:53.260Z,131.45
2022-12-12T07:38:53.240Z,132.37
2022-12-12T07:39:53.244Z,132.99
2022-12-12T07:40:53.250Z,134.63
2022-12-12T07:41:53.304Z,135.09
2022-12-12T07:42:53.295Z,136.57
2022-12-12T07:43:53.253Z,138.5
2022-12-12T07:44:53.251Z,140.64
2022-12-12T07:45:53.263Z,143.36
2022-12-12T07:46:53.348Z,145.53
2022-12-12T07:47:53.262Z,148.4
2022-12-12T07:48:53.404Z,152.15
2022-12-12T07:49:53.261Z,153.55
2022-12-12T07:50:53.267Z,156.94
2022-12-12T07:51:53.262Z,160.55
2022-12-12T07:52:53.271Z,163.9
2022-12-12T07:53:53.263Z,166.94
2022-12-12T07:54:53.273Z,170.34
2022-12-12T07:55:53.275Z,174.08
2022-12-12T07:56:53.274Z,177.87
2022-12-12T07:57:53.278Z,181.47
2022-12-12T07:58:53.282Z,186.64
2022-12-12T07:59:56.030Z,189.59
2022-12-12T08:00:53.273Z,191.14
2022-12-12T08:01:53.301Z,193.25
2022-12-12T08:02:53.284Z,196.11
2022-12-12T08:03:53.285Z,196.74
2022-12-12T08:04:53.358Z,198.64
2022-12-12T08:05:53.291Z,200.1
2022-12-12T08:06:59.754Z,201.76
2022-12-12T08:07:53.322Z,203.22
2022-12-12T08:08:53.286Z,205.77
2022-12-12T08:09:53.289Z,206.23
2022-12-12T08:10:55.114Z,207.67
2022-12-12T08:11:53.297Z,209.08
2022-12-12T08:12:53.300Z,210.06
2022-12-12T08:13:53.316Z,210.46
2022-12-12T08:14:53.301Z,212.81
2022-12-12T08:15:53.344Z,214.74
2022-12-12T08:16:53.307Z,216.61
2022-12-12T08:17:53.307Z,219.2
2022-12-12T08:18:53.302Z,219.64
2022-12-12T08:19:53.313Z,220.08
2022-12-12T08:20:53.343Z,220.36
2022-12-12T08:21:56.378Z,220.31
2022-12-12T08:22:53.308Z,220.81
2022-12-12T08:23:53.314Z,220.3
2022-12-12T08:24:53.310Z,220.55
2022-12-12T08:25:53.314Z,221.9
2022-12-12T08:26:53.314Z,223.07
2022-12-12T08:27:53.315Z,224.96
2022-12-12T08:28:53.322Z,225.39
2022-12-12T08:29:53.324Z,227.8
2022-12-12T08:30:53.379Z,228.93
2022-12-12T08:31:53.328Z,230.34
2022-12-12T08:32:56.223Z,231.26
2022-12-12T08:33:53.466Z,233.6
2022-12-12T08:34:53.330Z,234.74
2022-12-12T08:35:53.338Z,235.66
2022-12-12T08:36:53.363Z,237.78
2022-12-12T08:37:53.341Z,238.5
2022-12-12T08:38:53.354Z,239.44
2022-12-12T08:39:55.676Z,239.83
2022-12-12T08:40:53.341Z,242.29
2022-12-12T08:41:53.343Z,242.85
2022-12-12T08:42:53.346Z,245.62
2022-12-12T08:43:53.341Z,246.74
2022-12-12T08:44:53.348Z,248.66
2022-12-12T08:45:53.347Z,251.62
2022-12-12T08:46:53.396Z,252.95
2022-12-12T08:47:53.349Z,254.53
2022-12-12T08:48:53.347Z,257.09
2022-12-12T08:49:53.356Z,258.92
2022-12-12T08:50:53.354Z,260.03
2022-12-12T08:51:53.361Z,260.71
2022-12-12T08:52:53.393Z,262.36
2022-12-12T08:53:53.361Z,262.36
2022-12-12T08:54:53.365Z,263.23
2022-12-12T08:55:53.365Z,263.55
2022-12-12T08:56:53.378Z,262.35
2022-12-12T08:57:53.371Z,260.99
2022-12-12T08:58:53.366Z,261.02
2022-12-12T08:59:53.380Z,261.52
2022-12-12T09:00:53.373Z,260.81
2022-12-12T09:01:53.471Z,261.06
2022-12-12T09:02:53.518Z,263.1
2022-12-12T09:03:53.373Z,263.57
2022-12-12T09:04:53.378Z,264.8
2022-12-12T09:05:53.381Z,265.41
2022-12-12T09:06:53.382Z,266.17
2022-12-12T09:07:53.405Z,266.43
2022-12-12T09:08:53.454Z,267.09
2022-12-12T09:09:53.385Z,267.52
2022-12-12T09:10:53.415Z,268.26
2022-12-12T09:11:53.388Z,269.8
2022-12-12T09:12:53.389Z,271.48
2022-12-12T09:13:53.394Z,273.2
2022-12-12T09:14:53.394Z,274.39
2022-12-12T09:15:56.435Z,275.57
2022-12-12T09:16:53.390Z,276.04
2022-12-12T09:17:53.404Z,276.54
2022-12-12T09:18:53.394Z,276.79
2022-12-12T09:19:53.407Z,276.14
2022-12-12T09:20:53.397Z,275.9
2022-12-12T09:21:53.405Z,275.7
2022-12-12T09:22:53.401Z,275.73
2022-12-12T09:23:53.408Z,276.39
2022-12-12T09:24:53.463Z,276.87
2022-12-12T09:25:53.411Z,278.76
2022-12-12T09:26:53.414Z,280.09
2022-12-12T09:27:53.415Z,280.56
2022-12-12T09:28:53.415Z,282.55
2022-12-12T09:29:53.429Z,282.05
2022-12-12T09:30:53.420Z,282.53
2022-12-12T09:31:53.467Z,282.31
2022-12-12T09:32:53.417Z,281.63
2022-12-12T09:33:53.457Z,281.17
2022-12-12T09:34:53.421Z,280.74
2022-12-12T09:35:53.424Z,280.49
2022-12-12T09:36:53.432Z,280
2022-12-12T09:37:53.426Z,281.88
2022-12-12T09:38:53.426Z,281.68
2022-12-12T09:39:53.432Z,280.92
2022-12-12T09:40:53.457Z,280.73
2022-12-12T09:41:53.433Z,279.44
2022-12-12T09:42:53.443Z,278.98
2022-12-12T09:43:53.444Z,278.32
2022-12-12T09:44:53.443Z,277.19
2022-12-12T09:45:53.486Z,275.59
2022-12-12T09:46:53.438Z,275.16
2022-12-12T09:47:54.495Z,274.65
2022-12-12T09:48:53.460Z,274.92
2022-12-12T09:49:53.444Z,275.84
2022-12-12T09:50:53.483Z,275.78
2022-12-12T09:51:53.453Z,276.26
2022-12-12T09:52:53.452Z,277.45
2022-12-12T09:53:53.454Z,277.89
2022-12-12T09:54:53.458Z,276.94
2022-12-12T09:55:53.501Z,277.02
2022-12-12T09:56:53.484Z,277.39
2022-12-12T09:57:53.477Z,278.13
2022-12-12T09:58:56.819Z,277.85
2022-12-12T09:59:53.459Z,277.88
2022-12-12T10:00:53.519Z,278.22
2022-12-12T10:01:53.526Z,279.7
2022-12-12T10:02:53.469Z,281.96
2022-12-12T10:03:53.476Z,283.51
2022-12-12T10:04:53.502Z,285.06
2022-12-12T10:06:07.368Z,288.04
2022-12-12T10:06:53.470Z,291.36
2022-12-12T10:07:53.503Z,293.66
2022-12-12T10:08:53.519Z,296.75
2022-12-12T10:09:53.477Z,299.39
2022-12-12T10:10:53.513Z,303.08
2022-12-12T10:11:53.511Z,305.28
2022-12-12T10:12:53.506Z,309.07
2022-12-12T10:13:53.486Z,311.31
2022-12-12T10:14:53.485Z,314.9
2022-12-12T10:15:53.592Z,317.98
2022-12-12T10:16:57.673Z,321.08
2022-12-12T10:17:53.494Z,325.71
2022-12-12T10:18:53.495Z,329.96
2022-12-12T10:19:53.489Z,334.07
2022-12-12T10:20:53.528Z,338.19
2022-12-12T10:21:53.522Z,342.39
2022-12-12T10:22:53.514Z,346.26
2022-12-12T10:23:53.496Z,348.88
2022-12-12T10:24:53.497Z,352.95
2022-12-12T10:25:53.502Z,357.16
2022-12-12T10:26:54.220Z,358.55
2022-12-12T10:27:53.503Z,361.04
2022-12-12T10:28:53.539Z,362.89
2022-12-12T10:29:53.512Z,363.31
2022-12-12T10:30:53.508Z,363.7
2022-12-12T10:31:53.600Z,365.26
2022-12-12T10:32:53.544Z,367.89
2022-12-12T10:33:53.513Z,369.5
2022-12-12T10:34:55.207Z,372.1
2022-12-12T10:35:53.519Z,373.06
2022-12-12T10:36:53.550Z,373.2
2022-12-12T10:37:56.354Z,375
2022-12-12T10:38:53.818Z,375.39
2022-12-12T10:39:53.529Z,374.11
2022-12-12T10:40:53.524Z,373.64
2022-12-12T10:41:53.527Z,374.3
2022-12-12T10:42:53.537Z,373.6
2022-12-12T10:43:53.533Z,372.54
2022-12-12T10:44:53.564Z,371.73
2022-12-12T10:45:53.608Z,369.74
2022-12-12T10:46:53.678Z,368.26
2022-12-12T10:47:53.543Z,367.19
2022-12-12T10:48:56.552Z,365.51
2022-12-12T10:49:53.576Z,364.15
2022-12-12T10:50:53.547Z,364.02
2022-12-12T10:51:53.571Z,362.5
2022-12-12T10:52:53.542Z,362.51
2022-12-12T10:53:53.544Z,361.81
2022-12-12T10:54:53.551Z,361.19
2022-12-12T10:55:53.580Z,361.16
2022-12-12T10:56:53.601Z,359.57
2022-12-12T10:57:53.558Z,359.37
2022-12-12T10:58:53.557Z,358.37
2022-12-12T10:59:56.394Z,356.35
2022-12-12T11:00:53.581Z,355.23
2022-12-12T11:02:09.460Z,353.05
2022-12-12T11:02:58.308Z,350.44
2022-12-12T11:03:53.579Z,349.16
2022-12-12T11:04:53.576Z,347.36
2022-12-12T11:05:53.566Z,347.35
2022-12-12T11:06:53.574Z,346.28
2022-12-12T11:07:53.656Z,346.3
2022-12-12T11:08:53.568Z,345.37
2022-12-12T11:09:55.672Z,343.45
2022-12-12T11:10:53.583Z,342.11
2022-12-12T11:11:53.594Z,338.86
2022-12-12T11:12:53.627Z,336.05
2022-12-12T11:13:53.580Z,336.66
2022-12-12T11:14:53.582Z,334.94
2022-12-12T11:15:53.609Z,334.02
2022-12-12T11:16:53.649Z,332.54
2022-12-12T11:17:53.624Z,331.25
2022-12-12T11:18:53.593Z,330.14
2022-12-12T11:20:53.599Z,330.2
2022-12-12T11:21:53.597Z,328.94
2022-12-12T11:22:53.627Z,328.59
2022-12-12T11:23:53.599Z,328.81
2022-12-12T11:24:53.599Z,329.48
2022-12-12T11:25:55.782Z,330.34
2022-12-12T11:26:53.600Z,331.91
2022-12-12T11:27:53.637Z,331.88
2022-12-12T11:28:53.599Z,333.67
2022-12-12T11:29:53.605Z,333.87
2022-12-12T11:30:53.600Z,334.16
2022-12-12T11:31:53.686Z,334.94
2022-12-12T11:32:53.628Z,335.61
2022-12-12T11:33:54.766Z,336.24
2022-12-12T11:34:53.606Z,336.93
2022-12-12T11:35:53.606Z,337.64
2022-12-12T11:36:53.620Z,337.31
2022-12-12T11:37:53.638Z,336.5
2022-12-12T11:38:56.401Z,335.74
2022-12-12T11:39:56.061Z,335.63
2022-12-12T11:40:53.631Z,334.51
2022-12-12T11:41:53.648Z,332.9
2022-12-12T11:42:59.464Z,330.35
2022-12-12T11:43:53.632Z,328.99
2022-12-12T11:44:53.630Z,328.39
2022-12-12T11:45:53.652Z,327.04
2022-12-12T11:46:53.630Z,326.39
2022-12-12T11:47:53.753Z,326.4
2022-12-12T11:48:53.634Z,325.74
2022-12-12T11:49:53.639Z,325.03
2022-12-12T11:50:53.646Z,324.16
2022-12-12T11:51:53.636Z,324.14
2022-12-12T11:52:56.441Z,323.04
2022-12-12T11:53:53.643Z,323.01
2022-12-12T11:54:53.642Z,321.91
2022-12-12T11:55:53.655Z,321.42
2022-12-12T11:56:53.646Z,321.55
2022-12-12T11:57:55.710Z,321.19
2022-12-12T11:58:53.647Z,321.39
2022-12-12T11:59:53.650Z,320.46
2022-12-12T12:00:53.650Z,319.96
2022-12-12T12:01:53.654Z,319.19
2022-12-12T12:02:53.747Z,319.83
2022-12-12T12:03:53.750Z,318.27
2022-12-12T12:05:53.653Z,318.28
2022-12-12T12:06:53.658Z,317.81
2022-12-12T12:07:53.731Z,318.34
2022-12-12T12:08:53.666Z,317.62
2022-12-12T12:09:53.669Z,318.1
2022-12-12T12:11:53.675Z,316.15
2022-12-12T12:12:56.703Z,315.46
2022-12-12T12:13:56.619Z,314.17
2022-12-12T12:14:53.670Z,313.26
2022-12-12T12:15:53.681Z,312.6
2022-12-12T12:16:56.701Z,311.44
2022-12-12T12:17:53.695Z,310.11
2022-12-12T12:18:56.695Z,310.78
2022-12-12T12:19:53.780Z,311.19
2022-12-12T12:20:53.681Z,311.95
2022-12-12T12:21:53.681Z,312.1
2022-12-12T12:22:53.680Z,310.52
2022-12-12T12:23:53.704Z,310.54
2022-12-12T12:24:53.697Z,311.01
2022-12-12T12:25:55.909Z,310.11
2022-12-12T12:26:53.781Z,310.34
2022-12-12T12:27:53.732Z,310.59
2022-12-12T12:28:54.244Z,310.59
2022-12-12T12:29:53.697Z,310.58
2022-12-12T12:30:53.724Z,309.9
2022-12-12T12:31:53.702Z,309
2022-12-12T12:32:53.709Z,309.02
2022-12-12T12:33:53.707Z,309.56
2022-12-12T12:34:53.730Z,309.74
2022-12-12T12:35:53.710Z,309.5